Time;durP1;ratioP1;P1;durP2;ratioP2;P2;SDS_P1;SDS_P2;PMS_P1;PMS_P2;Temp;Humidity;BMP_temperature;BMP_pressure;BME280_temperature;BME280_humidity;BME280_pressure;Samples;Min_cycle;Max_cycle;Signal;HPM_P1;HPM_P2
2021/01/27 00:00:14;;;;;;;38.85;24.40;;;;;;;-3.99;73.72;95674.66;5058613;28;20052;-58
2021/01/27 00:02:41;;;;;;;47.83;30.55;;;;;;;-4.03;73.82;95667.28;5079250;28;20052;-58
2021/01/27 00:05:14;;;;;;;64.50;36.78;;;;;;;-4.00;73.90;95667.91;5067721;28;20079;-57
2021/01/27 00:07:43;;;;;;;59.17;34.65;;;;;;;-4.00;73.60;95673.06;5071865;28;20048;-58
2021/01/27 00:10:11;;;;;;;56.72;29.77;;;;;;;-4.05;74.68;95679.53;5086146;27;20508;-58
2021/01/27 00:12:38;;;;;;;48.25;27.30;;;;;;;-3.97;74.29;95670.94;5069935;28;20062;-58
2021/01/27 00:15:12;;;;;;;46.42;25.85;;;;;;;-3.87;74.75;95670.72;5043166;28;20104;-57
2021/01/27 00:17:39;;;;;;;54.90;29.52;;;;;;;-3.80;74.08;95676.78;5079353;28;20052;-57
2021/01/27 00:20:10;;;;;;;41.22;25.48;;;;;;;-3.74;73.34;95676.09;5070142;28;20048;-57
2021/01/27 00:22:37;;;;;;;45.92;28.13;;;;;;;-3.72;73.82;95673.38;5066904;28;20070;-58
2021/01/27 00:25:06;;;;;;;49.00;30.10;;;;;;;-3.75;73.71;95671.13;5087914;28;20048;-59
2021/01/27 00:27:34;;;;;;;57.17;32.08;;;;;;;-3.68;73.46;95676.41;5070004;28;20546;-58
2021/01/27 00:30:02;;;;;;;52.75;31.45;;;;;;;-3.69;73.86;95667.06;5071318;28;20515;-58
2021/01/27 00:32:29;;;;;;;54.15;28.10;;;;;;;-3.61;73.58;95674.72;5062621;28;20055;-58
2021/01/27 00:34:57;;;;;;;41.10;25.65;;;;;;;-3.60;73.55;95671.19;5073175;28;20507;-58
2021/01/27 00:37:24;;;;;;;46.35;25.92;;;;;;;-3.57;73.70;95679.34;5071758;28;20052;-58
2021/01/27 00:39:52;;;;;;;47.22;25.50;;;;;;;-3.54;73.40;95678.22;5070578;28;20047;-57
2021/01/27 00:42:19;;;;;;;49.35;28.10;;;;;;;-3.50;73.36;95683.84;5066199;28;20063;-58
2021/01/27 00:44:46;;;;;;;47.92;26.92;;;;;;;-3.47;73.28;95681.72;5066998;28;20040;-57
2021/01/27 00:47:27;;;;;;;39.40;24.42;;;;;;;-3.48;73.19;95680.09;5056014;28;20048;-60
2021/01/27 00:49:54;;;;;;;40.78;24.33;;;;;;;-3.47;73.69;95686.88;5066063;28;20052;-58
2021/01/27 00:52:24;;;;;;;39.30;26.23;;;;;;;-3.44;73.70;95680.56;5047269;28;20051;-59
2021/01/27 00:54:52;;;;;;;49.40;29.55;;;;;;;-3.48;73.23;95684.47;5071435;28;20052;-58
2021/01/27 00:57:20;;;;;;;45.33;25.70;;;;;;;-3.46;74.04;95685.09;5076036;28;20536;-57
2021/01/27 00:59:50;;;;;;;49.67;26.83;;;;;;;-3.43;73.77;95677.81;5068225;28;20048;-60
2021/01/27 01:02:17;;;;;;;43.45;27.02;;;;;;;-3.41;73.45;95681.03;5064784;28;20059;-58
2021/01/27 01:04:51;;;;;;;38.45;23.50;;;;;;;-3.36;72.87;95677.13;5068090;28;20044;-58
2021/01/27 01:07:18;;;;;;;39.88;24.55;;;;;;;-3.35;73.03;95673.56;5082807;28;20052;-58
2021/01/27 01:09:45;;;;;;;37.63;23.15;;;;;;;-3.36;72.72;95666.78;5064282;28;20059;-59
2021/01/27 01:12:13;;;;;;;40.28;22.65;;;;;;;-3.33;72.29;95666.47;5061209;28;20043;-58
2021/01/27 01:14:40;;;;;;;40.13;22.30;;;;;;;-3.33;72.31;95666.47;5052680;28;20034;-58
2021/01/27 01:17:07;;;;;;;42.30;23.63;;;;;;;-3.31;72.31;95665.28;5068894;28;20530;-58
2021/01/27 01:19:34;;;;;;;40.08;22.42;;;;;;;-3.41;71.98;95647.50;5068670;28;20051;-58
2021/01/27 01:22:01;;;;;;;32.40;21.13;;;;;;;-3.25;72.33;95668.97;5064241;28;20052;-58
2021/01/27 01:24:29;;;;;;;31.00;20.65;;;;;;;-3.28;71.71;95667.53;5054304;28;20066;-59
2021/01/27 01:26:57;;;;;;;31.30;18.73;;;;;;;-3.29;72.05;95662.56;5044069;28;20047;-58
2021/01/27 01:29:24;;;;;;;32.47;19.67;;;;;;;-3.34;72.22;95659.69;5067051;28;20052;-58
2021/01/27 01:31:51;;;;;;;31.83;18.23;;;;;;;-3.42;72.10;95656.22;5027472;28;20056;-58
2021/01/27 01:34:19;;;;;;;33.90;22.05;;;;;;;-3.47;72.43;95660.28;5013214;28;20048;-58
2021/01/27 01:36:46;;;;;;;38.40;22.80;;;;;;;-3.64;72.94;95659.63;5018420;28;20080;-57
2021/01/27 01:39:13;;;;;;;37.78;24.75;;;;;;;-3.79;73.59;95656.97;5054169;28;20076;-58
2021/01/27 01:41:40;;;;;;;33.88;23.30;;;;;;;-3.88;74.12;95653.66;5027911;28;20044;-58
2021/01/27 01:44:07;;;;;;;34.28;22.90;;;;;;;-3.98;73.76;95653.06;5027215;28;20052;-58
2021/01/27 01:46:34;;;;;;;38.63;21.95;;;;;;;-3.99;74.18;95651.47;5024889;28;21871;-58
2021/01/27 01:49:13;;;;;;;38.47;23.95;;;;;;;-4.03;74.12;95651.81;5034494;28;20040;-58
2021/01/27 01:51:50;;;;;;;40.45;24.05;;;;;;;-4.06;73.88;95651.38;5016780;28;20048;-59
2021/01/27 01:54:33;;;;;;;35.13;20.25;;;;;;;-4.08;74.03;95658.44;5024088;28;20070;-58
2021/01/27 01:57:07;;;;;;;30.38;20.30;;;;;;;-4.16;73.93;95654.16;5034934;28;20048;-59
2021/01/27 01:59:37;;;;;;;30.30;17.98;;;;;;;-4.21;74.22;95662.38;5034048;28;20068;-58
2021/01/27 02:02:09;;;;;;;39.50;19.33;;;;;;;-4.27;74.64;95655.31;5050978;28;20053;-57
2021/01/27 02:04:50;;;;;;;27.42;18.85;;;;;;;-4.35;75.13;95656.16;5046117;28;20044;-58
2021/01/27 02:07:18;;;;;;;41.15;21.45;;;;;;;-4.38;74.82;95659.09;5052844;28;20045;-58
2021/01/27 02:09:46;;;;;;;39.33;22.15;;;;;;;-4.41;74.93;95656.84;5050963;28;20060;-57
2021/01/27 02:12:26;;;;;;;41.22;23.90;;;;;;;-4.54;75.03;95649.63;5054505;28;20052;-58
2021/01/27 02:15:15;;;;;;;30.13;17.05;;;;;;;-4.77;75.86;95634.16;5035145;28;20063;-58
2021/01/27 02:17:48;;;;;;;27.70;18.95;;;;;;;-4.63;76.17;95651.47;5003645;28;20052;-58
2021/01/27 02:20:53;;;;;;;27.00;17.45;;;;;;;-4.64;76.21;95649.88;5040110;28;20052;-60
2021/01/27 02:24:05;;;;;;;29.48;18.75;;;;;;;-4.67;76.23;95649.38;5052525;28;20051;-61
2021/01/27 02:26:52;;;;;;;29.77;17.25;;;;;;;-4.74;76.29;95656.97;4979818;28;20044;-58
2021/01/27 02:29:37;;;;;;;23.00;13.25;;;;;;;-4.73;75.91;95663.69;5036776;28;20059;-58
2021/01/27 02:32:27;;;;;;;24.13;13.00;;;;;;;-4.72;76.46;95657.59;5051355;28;20056;-58
2021/01/27 02:35:32;;;;;;;23.45;14.52;;;;;;;-4.88;76.64;95652.50;5034892;28;20052;-58
2021/01/27 02:38:04;;;;;;;18.98;12.95;;;;;;;-5.06;77.26;95656.09;5039161;28;20508;-58
2021/01/27 02:40:41;;;;;;;22.60;13.07;;;;;;;-5.12;77.58;95651.59;5033577;28;20055;-58
2021/01/27 02:43:25;;;;;;;21.00;12.48;;;;;;;-5.04;77.16;95663.63;5037170;28;20049;-58
2021/01/27 02:46:00;;;;;;;21.02;12.20;;;;;;;-4.98;76.79;95656.06;5051975;28;20055;-57
2021/01/27 02:48:41;;;;;;;24.52;15.15;;;;;;;-4.95;76.65;95653.16;5019418;28;20707;-58
2021/01/27 02:51:40;;;;;;;29.92;16.42;;;;;;;-5.04;77.18;95651.59;5031891;28;20048;-58
2021/01/27 02:54:19;;;;;;;23.02;14.85;;;;;;;-5.05;76.98;95654.31;5018261;28;20056;-58
2021/01/27 02:57:19;;;;;;;26.73;13.27;;;;;;;-5.05;76.81;95655.13;5032171;28;20057;-58
2021/01/27 02:59:59;;;;;;;25.48;15.70;;;;;;;-5.08;76.99;95652.06;5052465;28;20051;-58
2021/01/27 03:02:43;;;;;;;21.90;12.23;;;;;;;-5.09;77.31;95646.13;5034091;28;20075;-59
2021/01/27 03:05:23;;;;;;;14.48;9.52;;;;;;;-5.04;77.21;95643.88;5027672;28;20044;-58
2021/01/27 03:07:55;;;;;;;19.85;12.30;;;;;;;-5.01;77.14;95646.13;5052727;28;20738;-57
2021/01/27 03:10:36;;;;;;;21.52;11.27;;;;;;;-5.06;76.94;95656.09;5022723;28;20048;-57
2021/01/27 03:13:03;;;;;;;15.05;11.13;;;;;;;-5.06;77.30;95645.00;5034788;28;20048;-57
2021/01/27 03:15:31;;;;;;;14.85;10.20;;;;;;;-5.15;77.38;95646.78;5036234;28;20587;-58
2021/01/27 03:18:00;;;;;;;17.58;9.43;;;;;;;-5.16;77.48;95645.97;5057851;28;20043;-58
2021/01/27 03:20:32;;;;;;;12.75;8.65;;;;;;;-5.20;77.55;95643.88;5034468;28;20059;-58
2021/01/27 03:23:13;;;;;;;15.25;9.65;;;;;;;-5.29;78.08;95640.56;5033756;28;20057;-58
2021/01/27 03:26:07;;;;;;;14.75;9.40;;;;;;;-5.22;78.20;95651.78;5033911;28;20044;-58
2021/01/27 03:28:40;;;;;;;14.50;10.50;;;;;;;-5.21;78.13;95647.41;5042682;28;20431;-58
2021/01/27 03:31:07;;;;;;;15.90;11.15;;;;;;;-5.22;78.34;95651.78;5054508;28;20059;-58
2021/01/27 03:33:56;;;;;;;17.25;11.60;;;;;;;-5.23;78.86;95651.94;5044744;28;20048;-58
2021/01/27 03:36:26;;;;;;;18.30;12.05;;;;;;;-5.17;79.33;95664.13;5054118;28;20051;-58
2021/01/27 03:38:54;;;;;;;22.95;11.93;;;;;;;-5.03;78.62;95660.91;5021982;28;20456;-58
2021/01/27 03:41:35;;;;;;;21.65;13.02;;;;;;;-4.91;78.63;95670.84;5032513;28;20935;-58
2021/01/27 03:44:25;;;;;;;21.13;15.15;;;;;;;-4.86;78.72;95669.38;5034782;28;20036;-58
2021/01/27 03:47:11;;;;;;;26.45;14.73;;;;;;;-4.91;79.53;95670.84;5057292;28;20485;-58
2021/01/27 03:50:00;;;;;;;20.77;12.75;;;;;;;-5.07;79.46;95648.53;5051582;28;20049;-57
2021/01/27 03:52:35;;;;;;;21.65;12.85;;;;;;;-4.93;79.30;95671.03;5053291;28;20056;-58
2021/01/27 03:55:16;;;;;;;25.77;15.02;;;;;;;-4.84;78.97;95669.22;5051797;28;20713;-58
2021/01/27 03:57:53;;;;;;;20.95;13.65;;;;;;;-4.79;78.71;95662.59;5039542;28;20067;-58
2021/01/27 04:00:20;;;;;;;22.52;14.07;;;;;;;-4.76;78.85;95660.66;5015489;28;20057;-58
2021/01/27 04:03:15;;;;;;;23.50;13.07;;;;;;;-4.82;79.05;95659.56;5045647;28;20104;-58
2021/01/27 04:05:43;;;;;;;18.58;13.00;;;;;;;-4.76;78.62;95660.66;5020152;28;20503;-58
2021/01/27 04:08:10;;;;;;;16.83;12.57;;;;;;;-4.73;78.88;95652.63;5034801;28;20052;-58
2021/01/27 04:10:37;;;;;;;23.33;13.73;;;;;;;-4.78;78.95;95647.97;5035886;28;20052;-59
2021/01/27 04:13:05;;;;;;;24.65;14.40;;;;;;;-4.83;79.16;95645.09;5052230;28;20051;-58
2021/01/27 04:15:33;;;;;;;22.08;12.43;;;;;;;-4.85;79.24;95647.00;5015532;28;20059;-58
2021/01/27 04:18:01;;;;;;;23.63;14.00;;;;;;;-4.81;78.84;95646.53;5053809;28;20056;-58
2021/01/27 04:20:28;;;;;;;22.40;13.90;;;;;;;-4.76;79.01;95652.94;5038208;28;20135;-58
2021/01/27 04:22:55;;;;;;;20.85;12.98;;;;;;;-4.74;78.78;95656.16;5061023;28;20044;-58
2021/01/27 04:25:23;;;;;;;21.27;13.00;;;;;;;-4.69;79.08;95652.13;5045047;28;20107;-57
2021/01/27 04:27:51;;;;;;;21.00;12.75;;;;;;;-4.61;79.13;95658.19;5043862;28;20044;-58
2021/01/27 04:30:24;;;;;;;23.85;15.77;;;;;;;-4.55;78.73;95653.19;5062640;28;20048;-58
2021/01/27 04:32:52;;;;;;;26.80;15.18;;;;;;;-4.51;78.50;95659.63;5060718;28;21098;-58
2021/01/27 04:35:19;;;;;;;31.42;17.42;;;;;;;-4.49;78.27;95646.56;5037337;28;20493;-58
2021/01/27 04:37:47;;;;;;;24.90;16.20;;;;;;;-4.39;78.22;95654.09;5058452;28;20063;-58
2021/01/27 04:40:36;;;;;;;27.83;15.65;;;;;;;-4.37;77.99;95649.59;5018420;28;20048;-58
2021/01/27 04:43:11;;;;;;;27.00;17.80;;;;;;;-4.44;77.99;95644.31;5031799;28;20075;-58
2021/01/27 04:45:38;;;;;;;26.90;15.97;;;;;;;-4.43;78.38;95645.13;5013070;28;20063;-58
2021/01/27 04:48:19;;;;;;;22.85;14.93;;;;;;;-4.43;78.18;95647.69;5034742;28;20293;-58
2021/01/27 04:50:51;;;;;;;20.35;13.73;;;;;;;-4.41;77.97;95651.69;5027713;28;20338;-57
2021/01/27 04:53:33;;;;;;;23.38;13.02;;;;;;;-4.37;78.08;95652.94;5029071;28;20056;-58
2021/01/27 04:56:15;;;;;;;17.92;11.93;;;;;;;-4.41;77.79;95656.84;5054101;28;20036;-59
2021/01/27 04:58:59;;;;;;;28.33;14.93;;;;;;;-4.56;78.01;95632.78;5035362;28;23268;-62
2021/01/27 05:01:46;;;;;;;23.90;15.60;;;;;;;-4.47;77.88;95654.94;5048752;28;20048;-58
2021/01/27 05:04:50;;;;;;;33.75;20.25;;;;;;;-4.41;77.65;95653.44;5032974;28;20048;-58
2021/01/27 05:07:25;;;;;;;28.65;17.65;;;;;;;-4.37;77.50;95650.38;5051056;28;20052;-61
2021/01/27 05:10:01;;;;;;;32.33;18.00;;;;;;;-4.30;77.20;95653.06;5051408;28;20048;-58
2021/01/27 05:12:46;;;;;;;28.27;18.20;;;;;;;-4.21;77.02;95656.41;5032051;28;20048;-63
2021/01/27 05:15:14;;;;;;;30.70;17.85;;;;;;;-4.19;76.90;95644.19;5048596;28;20052;-58
2021/01/27 05:17:44;;;;;;;31.85;19.67;;;;;;;-4.13;76.61;95651.25;5032568;28;20052;-58
2021/01/27 05:20:15;;;;;;;31.30;18.38;;;;;;;-4.22;76.89;95636.78;5049593;28;20040;-58
2021/01/27 05:22:42;;;;;;;30.45;18.77;;;;;;;-4.22;77.10;95654.81;5028894;28;22024;-58
2021/01/27 05:25:16;;;;;;;30.05;17.33;;;;;;;-4.21;77.37;95648.69;5049575;28;20049;-58
2021/01/27 05:27:45;;;;;;;29.37;18.93;;;;;;;-4.24;77.29;95652.41;5055705;28;20060;-58
2021/01/27 05:30:27;;;;;;;33.17;20.08;;;;;;;-4.32;77.98;95660.97;5043445;28;20493;-58
2021/01/27 05:32:56;;;;;;;34.15;19.60;;;;;;;-4.35;78.58;95656.16;5086520;28;20048;-58
2021/01/27 05:35:30;;;;;;;30.38;19.40;;;;;;;-4.35;78.69;95656.16;5048102;28;20048;-58
2021/01/27 05:38:00;;;;;;;37.13;19.02;;;;;;;-4.38;78.69;95658.28;5053097;28;20052;-58
2021/01/27 05:40:35;;;;;;;28.50;17.88;;;;;;;-4.35;78.86;95653.59;5047759;28;20408;-58
2021/01/27 05:43:18;;;;;;;30.55;19.77;;;;;;;-4.27;79.02;95664.84;5055979;28;20040;-58
2021/01/27 05:45:52;;;;;;;39.00;23.98;;;;;;;-4.26;78.75;95654.34;5069747;28;20071;-58
2021/01/27 05:48:34;;;;;;;30.60;18.85;;;;;;;-4.26;78.86;95651.00;5072655;28;20052;-58
2021/01/27 05:51:01;;;;;;;30.05;18.80;;;;;;;-4.19;78.60;95662.19;5078364;28;20054;-58
2021/01/27 05:53:30;;;;;;;33.70;20.83;;;;;;;-4.12;77.83;95652.81;5075007;28;20051;-58
2021/01/27 05:56:02;;;;;;;29.35;18.63;;;;;;;-4.06;78.08;95657.31;5055309;28;20040;-58
2021/01/27 05:58:33;;;;;;;32.72;20.38;;;;;;;-4.11;78.84;95657.00;5055212;28;20052;-58
2021/01/27 06:01:21;;;;;;;30.35;20.42;;;;;;;-4.11;78.82;95662.16;5072625;28;20787;-58
2021/01/27 06:04:27;;;;;;;31.65;19.65;;;;;;;-4.10;78.67;95656.03;5069685;28;20123;-58
2021/01/27 06:07:27;;;;;;;37.00;22.93;;;;;;;-4.11;78.74;95653.63;5033927;28;20070;-58
2021/01/27 06:09:55;;;;;;;46.13;28.70;;;;;;;-4.03;78.80;95659.53;5059584;28;20063;-59
2021/01/27 06:12:22;;;;;;;72.40;40.25;;;;;;;-3.96;78.34;95653.69;5072739;28;20048;-62
2021/01/27 06:15:14;;;;;;;44.38;28.90;;;;;;;-4.02;79.02;95668.06;5074100;28;20783;-58
2021/01/27 06:17:48;;;;;;;43.67;24.27;;;;;;;-3.98;79.10;95661.59;5074313;28;20079;-58
2021/01/27 06:20:18;;;;;;;33.40;21.33;;;;;;;-3.97;79.12;95657.25;5065038;28;20432;-58
2021/01/27 06:23:07;;;;;;;31.50;21.48;;;;;;;-3.98;78.09;95664.19;5047510;28;20063;-58
2021/01/27 06:26:01;;;;;;;30.75;20.15;;;;;;;-3.96;78.72;95657.09;5070228;28;20047;-57
2021/01/27 06:28:31;;;;;;;31.80;20.60;;;;;;;-3.89;78.54;95659.78;5068685;28;20056;-58
2021/01/27 06:31:37;;;;;;;29.08;19.40;;;;;;;-3.87;78.17;95657.81;5070786;28;20503;-58
2021/01/27 06:34:31;;;;;;;33.15;20.63;;;;;;;-3.91;78.56;95659.94;5053509;28;20063;-57
2021/01/27 06:37:17;;;;;;;32.08;22.42;;;;;;;-3.89;79.05;95654.63;5073350;28;20049;-57
2021/01/27 06:40:02;;;;;;;36.92;23.75;;;;;;;-3.78;78.24;95663.72;5074977;28;20048;-57
2021/01/27 06:42:44;;;;;;;35.33;23.58;;;;;;;-3.73;78.04;95657.09;5087250;28;20044;-57
2021/01/27 06:45:11;;;;;;;33.00;22.20;;;;;;;-3.66;78.28;95652.03;5072203;28;20056;-57
2021/01/27 06:48:01;;;;;;;29.38;19.95;;;;;;;-3.57;77.69;95650.22;5073450;28;20055;-57
2021/01/27 06:51:00;;;;;;;34.00;20.60;;;;;;;-3.49;77.32;95655.28;5078816;28;20479;-57
2021/01/27 06:54:01;;;;;;;29.75;18.83;;;;;;;-3.46;77.32;95652.38;5073682;28;20052;-57
2021/01/27 06:57:10;;;;;;;33.30;21.25;;;;;;;-3.44;77.73;95650.44;5057506;28;20044;-58
2021/01/27 07:00:11;;;;;;;42.80;22.95;;;;;;;-3.49;77.38;95649.34;5073355;28;20209;-57
2021/01/27 07:03:16;;;;;;;31.55;20.23;;;;;;;-3.48;77.65;95648.38;5072397;28;20051;-57
2021/01/27 07:06:01;;;;;;;36.83;21.10;;;;;;;-3.48;78.41;95648.38;5077767;28;20044;-58
2021/01/27 07:08:37;;;;;;;35.33;20.10;;;;;;;-3.44;77.74;95647.03;5083667;28;20063;-57
2021/01/27 07:11:16;;;;;;;34.13;18.10;;;;;;;-3.45;78.10;95651.41;5082038;28;20918;-57
2021/01/27 07:14:07;;;;;;;29.95;20.25;;;;;;;-3.43;77.90;95652.03;5040667;28;20048;-57
2021/01/27 07:16:52;;;;;;;27.65;18.02;;;;;;;-3.35;77.35;95653.75;5083014;28;20024;-57
2021/01/27 07:19:32;;;;;;;25.48;19.02;;;;;;;-3.26;77.17;95657.03;5062078;28;20064;-58
2021/01/27 07:22:16;;;;;;;34.47;23.05;;;;;;;-3.23;77.52;95656.69;5077745;28;20139;-57
2021/01/27 07:25:07;;;;;;;32.45;20.27;;;;;;;-3.13;77.56;95662.41;5081882;28;20044;-58
2021/01/27 07:27:44;;;;;;;28.55;19.92;;;;;;;-3.14;77.26;95642.72;5081689;28;20538;-57
2021/01/27 07:30:18;;;;;;;29.45;20.25;;;;;;;-3.13;77.78;95641.75;5088067;28;20049;-58
2021/01/27 07:33:05;;;;;;;37.35;21.55;;;;;;;-3.09;77.49;95644.81;5069388;28;20054;-57
2021/01/27 07:35:40;;;;;;;32.65;20.85;;;;;;;-3.03;77.27;95645.88;5072002;28;20051;-63
2021/01/27 07:38:17;;;;;;;39.90;23.80;;;;;;;-2.95;77.12;95643.22;5061717;28;20548;-58
2021/01/27 07:40:53;;;;;;;33.10;21.35;;;;;;;-2.85;77.00;95646.31;5060230;28;20055;-58
2021/01/27 07:43:51;;;;;;;34.20;21.88;;;;;;;-2.77;76.39;95645.44;5053146;28;20056;-58
2021/01/27 07:46:30;;;;;;;49.08;23.17;;;;;;;-2.64;75.58;95644.78;5086324;27;20078;-58
2021/01/27 07:49:03;;;;;;;34.83;22.63;;;;;;;-2.60;76.49;95647.84;5069396;28;20416;-57
2021/01/27 07:52:13;;;;;;;40.10;23.90;;;;;;;-2.56;75.99;95649.06;5069472;28;20075;-58
2021/01/27 07:54:50;;;;;;;37.78;22.58;;;;;;;-2.51;75.83;95649.34;5034655;28;20052;-58
2021/01/27 07:57:32;;;;;;;31.08;21.80;;;;;;;-2.43;75.36;95653.63;5017000;28;20060;-59
2021/01/27 08:00:11;;;;;;;33.08;22.02;;;;;;;-2.43;74.57;95651.81;5067905;28;20059;-57
2021/01/27 08:03:03;;;;;;;;;;;;;;;-2.41;75.51;95659.41;5054999;28;20048;-58
2021/01/27 08:05:40;;;;;;;38.00;22.45;;;;;;;-2.21;74.84;95659.63;5071505;28;20425;-58
2021/01/27 08:08:14;;;;;;;42.25;26.63;;;;;;;-2.07;74.15;95661.38;5078051;28;20118;-59
2021/01/27 08:10:42;;;;;;;38.78;22.88;;;;;;;-1.95;73.79;95659.13;5069031;28;20051;-63
2021/01/27 08:13:38;;;;;;;31.27;22.23;;;;;;;-1.79;73.02;95660.66;5071883;28;20059;-59
2021/01/27 08:16:14;;;;;;;36.80;25.17;;;;;;;-1.65;73.34;95666.75;5073124;28;20287;-59
2021/01/27 08:19:11;;;;;;;38.85;26.52;;;;;;;-1.60;72.00;95661.06;5054805;28;20059;-57
2021/01/27 08:21:51;;;;;;;36.88;24.45;;;;;;;-1.58;73.57;95669.41;5071920;28;20048;-59
2021/01/27 08:24:36;;;;;;;40.22;25.83;;;;;;;-1.49;73.43;95667.50;5054626;28;20059;-58
2021/01/27 08:27:10;;;;;;;36.45;26.05;;;;;;;-1.43;72.98;95666.78;5077095;28;20051;-59
2021/01/27 08:29:40;;;;;;;40.65;26.20;;;;;;;-1.33;73.58;95664.66;5070980;28;20055;-59
2021/01/27 08:32:32;;;;;;;39.17;25.40;;;;;;;-1.24;73.30;95660.16;5073212;28;20040;-59
2021/01/27 08:35:08;;;;;;;40.88;28.15;;;;;;;-1.11;72.45;95662.81;5068204;28;20056;-60
2021/01/27 08:37:36;;;;;;;;;;;;;;;-0.91;72.66;95661.38;5063548;28;20040;-59
2021/01/27 08:40:09;;;;;;;33.78;23.77;;;;;;;-0.74;72.05;95670.44;5066746;28;19924;-60
2021/01/27 08:42:44;;;;;;;38.78;23.70;;;;;;;-0.57;71.04;95654.63;5066407;28;20040;-62
2021/01/27 08:45:33;;;;;;;39.15;26.25;;;;;;;-0.49;70.07;95667.41;5071759;28;20048;-58
2021/01/27 08:48:04;;;;;;;34.72;23.25;;;;;;;-0.55;70.26;95663.78;5075396;28;21158;-58
2021/01/27 08:50:46;;;;;;;29.58;19.63;;;;;;;-0.40;69.94;95675.81;5055496;28;20058;-60
2021/01/27 08:53:20;;;;;;;26.25;20.23;;;;;;;-0.31;69.30;95675.44;5056308;28;20059;-59
2021/01/27 08:55:54;;;;;;;28.10;19.90;;;;;;;-0.22;68.49;95678.69;5057704;28;20527;-59
2021/01/27 08:58:33;;;;;;;31.88;17.75;;;;;;;-0.13;68.36;95676.72;5076335;28;20048;-59
2021/01/27 09:01:31;;;;;;;27.20;19.55;;;;;;;-0.14;67.55;95680.31;5073339;28;20059;-60
2021/01/27 09:04:00;;;;;;;26.65;18.35;;;;;;;-0.11;67.68;95674.75;5078706;28;20043;-59
2021/01/27 09:06:43;;;;;;;27.45;17.33;;;;;;;-0.10;67.60;95684.13;5060104;28;20047;-58
2021/01/27 09:09:23;;;;;;;29.70;21.25;;;;;;;-0.19;68.10;95683.50;5079195;28;20589;-60
2021/01/27 09:12:00;;;;;;;39.63;23.30;;;;;;;-0.14;68.13;95689.91;5093032;28;20047;-59
2021/01/27 09:14:28;;;;;;;41.95;27.25;;;;;;;-0.11;67.80;95689.47;5077793;28;21105;-59
2021/01/27 09:16:59;;;;;;;41.13;26.55;;;;;;;-0.10;68.16;95691.09;5052996;28;20040;-59
2021/01/27 09:19:37;;;;;;;31.92;20.50;;;;;;;0.02;67.80;95693.94;5077811;28;20063;-61
2021/01/27 09:22:24;;;;;;;36.28;22.80;;;;;;;0.20;67.93;95689.00;5054164;28;20067;-59
2021/01/27 09:24:57;;;;;;;35.88;22.17;;;;;;;0.38;67.73;95687.66;5078576;28;20058;-61
2021/01/27 09:27:31;;;;;;;31.33;20.42;;;;;;;0.46;66.88;95674.47;5053886;28;20435;-61
2021/01/27 09:30:11;;;;;;;27.92;18.48;;;;;;;0.69;65.72;95675.91;5065757;28;20055;-59
2021/01/27 09:32:42;;;;;;;29.08;16.45;;;;;;;0.79;65.85;95693.69;5078242;28;20097;-61
2021/01/27 09:35:11;;;;;;;21.23;14.27;;;;;;;0.89;64.81;95676.72;5077403;28;20591;-59
2021/01/27 09:38:00;;;;;;;22.42;14.60;;;;;;;1.01;64.37;95673.50;5080488;28;20039;-58
2021/01/27 09:40:38;;;;;;;17.25;12.48;;;;;;;1.16;62.51;95681.09;5073491;28;20098;-59
2021/01/27 09:43:15;;;;;;;17.30;12.98;;;;;;;1.00;63.18;95687.50;5049750;28;20071;-58
2021/01/27 09:45:46;;;;;;;19.25;12.60;;;;;;;0.98;64.01;95687.72;5070161;28;20040;-60
2021/01/27 09:48:17;;;;;;;17.38;12.13;;;;;;;1.06;63.99;95686.69;5069000;28;20036;-59
2021/01/27 09:50:58;;;;;;;18.67;13.52;;;;;;;0.98;64.31;95681.69;5063072;28;20048;-58
2021/01/27 09:53:29;;;;;;;13.52;11.40;;;;;;;1.01;63.89;95678.72;5066928;28;20051;-59
2021/01/27 09:55:57;;;;;;;13.43;10.05;;;;;;;1.06;63.75;95678.88;5070627;28;20059;-58
2021/01/27 09:58:24;;;;;;;15.15;11.55;;;;;;;1.17;63.53;95673.09;5054097;28;20044;-59
2021/01/27 10:01:17;;;;;;;17.10;11.95;;;;;;;1.25;62.51;95672.06;5072605;28;20056;-58
2021/01/27 10:03:48;;;;;;;17.27;12.13;;;;;;;1.32;62.05;95674.66;5036526;28;20067;-56
2021/01/27 10:06:46;;;;;;;14.68;11.80;;;;;;;1.42;61.22;95674.25;5052525;28;20533;-56
2021/01/27 10:09:19;;;;;;;13.63;10.50;;;;;;;1.52;61.60;95674.63;5074177;28;20287;-57
2021/01/27 10:12:01;;;;;;;15.32;10.40;;;;;;;1.57;60.46;95672.22;5070393;28;20087;-56
2021/01/27 10:14:37;;;;;;;14.27;9.93;;;;;;;1.56;59.83;95675.81;5060293;28;20055;-57
2021/01/27 10:17:10;;;;;;;15.23;9.80;;;;;;;1.46;58.91;95667.66;5072012;28;20074;-60
2021/01/27 10:19:49;;;;;;;13.73;9.68;;;;;;;1.22;60.21;95673.28;5075270;28;20036;-57
2021/01/27 10:22:38;;;;;;;11.50;9.85;;;;;;;1.32;60.13;95669.47;5073571;28;20063;-57
2021/01/27 10:25:29;;;;;;;13.15;8.73;;;;;;;1.44;59.48;95673.03;5075460;28;20048;-57
2021/01/27 10:28:23;;;;;;;13.70;10.70;;;;;;;1.52;59.20;95672.03;5080043;28;20044;-56
2021/01/27 10:30:54;;;;;;;12.65;9.48;;;;;;;1.58;59.84;95670.41;5064630;28;20044;-57
2021/01/27 10:33:43;;;;;;;12.75;9.25;;;;;;;1.67;58.85;95675.19;5043616;28;20033;-57
2021/01/27 10:36:40;;;;;;;10.55;7.72;;;;;;;1.41;59.20;95670.88;5042902;28;20465;-57
2021/01/27 10:39:13;;;;;;;10.75;9.02;;;;;;;1.42;58.68;95667.25;4986562;28;20189;-57
2021/01/27 10:41:43;;;;;;;11.32;7.60;;;;;;;1.20;58.13;95664.91;5027956;28;20053;-61
2021/01/27 10:44:20;;;;;;;12.25;8.45;;;;;;;1.09;59.90;95657.72;5027397;28;20056;-57
2021/01/27 10:46:51;;;;;;;12.25;8.50;;;;;;;1.08;59.92;95661.31;5046728;28;20048;-57
2021/01/27 10:49:19;;;;;;;15.05;8.88;;;;;;;1.04;59.04;95660.13;5044138;28;20068;-57
2021/01/27 10:51:46;;;;;;;12.25;8.98;;;;;;;1.04;59.42;95671.31;5066025;28;20053;-57
2021/01/27 10:54:19;;;;;;;10.90;7.95;;;;;;;1.08;58.68;95661.31;5046889;28;20048;-61
2021/01/27 10:56:51;;;;;;;11.93;8.18;;;;;;;1.12;58.14;95657.31;5066044;28;20063;-58
2021/01/27 10:59:18;;;;;;;10.65;8.23;;;;;;;1.25;57.77;95659.09;5066218;28;20040;-57
2021/01/27 11:01:45;;;;;;;13.20;9.05;;;;;;;1.06;58.74;95653.72;5029263;28;20052;-58
2021/01/27 11:04:13;;;;;;;12.40;9.40;;;;;;;1.10;58.71;95656.72;5025682;28;20056;-61
2021/01/27 11:06:43;;;;;;;11.82;8.98;;;;;;;1.03;58.52;95654.13;5042518;28;20059;-57
2021/01/27 11:09:11;;;;;;;14.48;10.23;;;;;;;1.03;58.39;95646.34;5041724;28;20143;-56
2021/01/27 11:11:40;;;;;;;15.45;9.23;;;;;;;1.04;58.97;95657.53;5030256;28;20065;-56
2021/01/27 11:14:07;;;;;;;12.75;8.82;;;;;;;0.86;59.79;95645.16;5065191;28;20044;-60
2021/01/27 11:16:34;;;;;;;14.15;11.23;;;;;;;0.84;60.31;95655.72;5065893;28;20048;-57
2021/01/27 11:19:02;;;;;;;14.57;9.55;;;;;;;0.89;60.31;95657.72;5064459;28;20049;-56
2021/01/27 11:21:29;;;;;;;12.93;9.93;;;;;;;0.77;60.38;95655.72;5049295;28;20933;-57
2021/01/27 11:23:57;;;;;;;13.20;9.80;;;;;;;0.69;59.90;95655.13;5039319;28;20055;-56
2021/01/27 11:26:24;;;;;;;10.35;9.05;;;;;;;0.61;60.10;95656.94;5065781;28;20523;-56
2021/01/27 11:28:51;;;;;;;14.10;10.57;;;;;;;0.64;60.85;95647.16;5045303;28;20075;-57
2021/01/27 11:31:18;;;;;;;10.40;8.10;;;;;;;0.79;59.44;95660.75;5030719;28;20064;-56
2021/01/27 11:33:45;;;;;;;14.18;9.52;;;;;;;0.77;59.06;95658.34;5055011;28;20555;-56
2021/01/27 11:36:17;;;;;;;10.55;8.40;;;;;;;0.69;59.09;95655.13;5045168;28;20340;-56
2021/01/27 11:38:45;;;;;;;11.82;7.88;;;;;;;0.65;58.97;95651.34;5034597;28;20479;-56
2021/01/27 11:41:14;;;;;;;13.07;8.60;;;;;;;0.69;57.32;95649.94;5040313;28;20065;-60
2021/01/27 11:43:43;;;;;;;11.88;8.73;;;;;;;0.79;58.65;95639.16;5014085;28;20060;-56
2021/01/27 11:46:16;;;;;;;15.55;10.32;;;;;;;0.66;58.29;95639.97;5031722;28;20555;-57
2021/01/27 11:48:45;;;;;;;12.90;9.13;;;;;;;0.71;58.65;95640.97;5054107;28;20037;-57
2021/01/27 11:51:14;;;;;;;10.73;7.63;;;;;;;0.86;58.02;95643.34;5065680;28;20178;-57
2021/01/27 11:53:42;;;;;;;8.27;7.00;;;;;;;0.97;56.88;95652.34;5042316;28;20060;-62
2021/01/27 11:56:12;;;;;;;9.90;6.32;;;;;;;0.96;57.08;95647.34;5057635;28;20874;-57
2021/01/27 11:58:41;;;;;;;11.65;7.70;;;;;;;0.98;57.51;95643.56;5056218;28;20032;-57
2021/01/27 12:01:09;;;;;;;9.15;6.72;;;;;;;1.13;55.83;95643.34;5009607;28;20294;-57
2021/01/27 12:03:37;;;;;;;11.02;6.40;;;;;;;1.18;56.11;95640.91;5041735;28;20048;-57